createdAt,value
2019-02-08T00:01:37.754Z,46.58
2019-02-08T00:04:07.433Z,42.50
2019-02-08T00:06:36.958Z,41.40
2019-02-08T00:09:09.694Z,38.60
2019-02-08T00:11:39.249Z,42.93
2019-02-08T00:14:09.295Z,44.10
2019-02-08T00:16:38.837Z,40.88
2019-02-08T00:19:09.362Z,42.88
2019-02-08T00:21:38.827Z,47.43
2019-02-08T00:24:08.597Z,44.35
2019-02-08T00:26:38.206Z,54.08
2019-02-08T00:29:07.963Z,44.67
2019-02-08T00:31:37.474Z,40.43
2019-02-08T00:34:06.933Z,45.45
2019-02-08T00:36:36.411Z,42.43
2019-02-08T00:39:12.377Z,46.75
2019-02-08T00:41:41.863Z,45.70
2019-02-08T00:44:11.402Z,37.75
2019-02-08T00:46:40.971Z,36.70
2019-02-08T00:49:10.471Z,36.77
2019-02-08T00:51:40.046Z,34.85
2019-02-08T00:54:09.568Z,42.33
2019-02-08T00:56:39.126Z,49.05
2019-02-08T00:59:08.970Z,39.30
2019-02-08T01:01:38.448Z,40.85
2019-02-08T01:04:08.083Z,34.67
2019-02-08T01:06:37.573Z,38.78
2019-02-08T01:09:10.109Z,45.75
2019-02-08T01:11:39.612Z,42.40
2019-02-08T01:14:09.376Z,42.05
2019-02-08T01:16:39.254Z,34.55
2019-02-08T01:19:08.978Z,34.83
2019-02-08T01:21:38.473Z,34.67
2019-02-08T01:24:07.961Z,34.85
2019-02-08T01:26:37.432Z,31.23
2019-02-08T01:29:07.007Z,37.08
2019-02-08T01:31:36.487Z,41.18
2019-02-08T01:34:06.663Z,29.87
2019-02-08T01:36:36.188Z,30.82
2019-02-08T01:39:08.384Z,42.73
2019-02-08T01:41:38.080Z,29.95
2019-02-08T01:44:07.814Z,32.60
2019-02-08T01:46:37.289Z,31.05
2019-02-08T01:49:06.793Z,34.58
2019-02-08T01:51:36.273Z,31.93
2019-02-08T01:54:06.000Z,31.60
2019-02-08T01:56:35.487Z,33.13
2019-02-08T01:59:05.175Z,28.05
2019-02-08T02:01:34.698Z,36.35
2019-02-08T02:04:04.606Z,27.35
2019-02-08T02:06:34.099Z,26.80
2019-02-08T02:09:05.171Z,28.65
2019-02-08T02:11:34.644Z,25.23
2019-02-08T02:14:05.264Z,25.52
2019-02-08T02:16:35.030Z,23.80
2019-02-08T02:19:04.817Z,27.50
2019-02-08T02:21:34.348Z,24.82
2019-02-08T02:24:04.926Z,23.02
2019-02-08T02:26:34.611Z,22.62
2019-02-08T02:29:04.112Z,20.85
2019-02-08T02:31:33.661Z,23.10
2019-02-08T02:34:03.198Z,19.07
2019-02-08T02:36:32.708Z,22.65
2019-02-08T02:39:02.192Z,14.40
2019-02-08T02:41:31.820Z,32.65
2019-02-08T02:44:01.330Z,18.45
2019-02-08T02:46:30.820Z,14.90
2019-02-08T02:49:00.318Z,20.65
2019-02-08T02:51:29.791Z,21.87
2019-02-08T02:54:04.768Z,19.10
2019-02-08T02:56:30.646Z,18.07
2019-02-08T02:59:00.150Z,24.23
2019-02-08T03:01:29.820Z,23.02
2019-02-08T03:03:59.318Z,26.73
2019-02-08T03:06:28.866Z,15.15
2019-02-08T03:08:58.379Z,16.80
2019-02-08T03:11:28.035Z,19.32
2019-02-08T03:13:57.642Z,19.10
2019-02-08T03:16:27.148Z,12.70
2019-02-08T03:18:56.754Z,19.48
2019-02-08T03:21:26.261Z,22.02
2019-02-08T03:23:55.746Z,23.67
2019-02-08T03:26:26.157Z,22.95
2019-02-08T03:28:55.640Z,26.02
2019-02-08T03:31:25.149Z,16.40
2019-02-08T03:33:54.754Z,21.95
2019-02-08T03:36:24.267Z,14.23
2019-02-08T03:38:53.742Z,18.92
2019-02-08T03:41:23.297Z,16.27
2019-02-08T03:43:52.853Z,15.18
2019-02-08T03:46:22.328Z,16.35
2019-02-08T03:48:51.802Z,28.90
2019-02-08T03:51:21.347Z,22.65
2019-02-08T03:53:50.934Z,21.17
2019-02-08T03:56:20.505Z,22.75
2019-02-08T03:58:50.015Z,15.05
2019-02-08T04:01:19.482Z,23.52
2019-02-08T04:03:49.667Z,21.87
2019-02-08T04:06:19.142Z,17.75
2019-02-08T04:08:48.627Z,27.27
2019-02-08T04:11:18.224Z,18.70
2019-02-08T04:13:47.706Z,20.35
2019-02-08T04:16:17.191Z,20.15
2019-02-08T04:18:46.701Z,16.23
2019-02-08T04:21:16.118Z,15.63
2019-02-08T04:23:45.633Z,22.80
2019-02-08T04:26:15.136Z,18.87
2019-02-08T04:28:44.669Z,20.27
2019-02-08T04:31:14.129Z,15.98
2019-02-08T04:33:43.666Z,22.98
2019-02-08T04:36:13.229Z,23.25
2019-02-08T04:38:42.813Z,23.70
2019-02-08T04:41:12.353Z,23.80
2019-02-08T04:43:41.761Z,32.43
2019-02-08T04:46:11.478Z,34.88
2019-02-08T04:48:40.927Z,24.13
2019-02-08T04:51:10.417Z,28.70
2019-02-08T04:53:39.889Z,30.80
2019-02-08T04:56:09.609Z,23.60
2019-02-08T04:58:39.103Z,35.05
2019-02-08T05:01:08.592Z,33.02
2019-02-08T05:03:38.422Z,30.90
2019-02-08T05:06:08.212Z,28.80
2019-02-08T05:08:37.894Z,42.15
2019-02-08T05:11:07.424Z,31.65
2019-02-08T05:13:37.461Z,32.97
2019-02-08T05:16:07.317Z,31.05
2019-02-08T05:18:36.877Z,27.52
2019-02-08T05:21:06.358Z,30.70
2019-02-08T05:23:35.905Z,30.52
2019-02-08T05:26:05.374Z,33.65
2019-02-08T05:28:34.907Z,30.32
2019-02-08T05:31:04.735Z,38.90
2019-02-08T05:33:34.308Z,29.72
2019-02-08T05:36:03.873Z,35.50
2019-02-08T05:38:33.352Z,39.33
2019-02-08T05:41:02.843Z,40.17
2019-02-08T05:43:32.324Z,37.95
2019-02-08T05:46:01.934Z,32.83
2019-02-08T05:48:31.423Z,33.88
2019-02-08T05:51:00.902Z,34.78
2019-02-08T05:53:30.373Z,34.75
2019-02-08T05:55:59.887Z,32.55
2019-02-08T05:58:29.396Z,32.42
2019-02-08T06:00:59.479Z,36.33
2019-02-08T06:03:28.870Z,31.10
2019-02-08T06:05:58.576Z,35.52
2019-02-08T06:08:28.264Z,31.48
2019-02-08T06:10:58.143Z,29.37
2019-02-08T06:13:27.961Z,29.42
2019-02-08T06:15:57.428Z,35.27
2019-02-08T06:18:26.905Z,34.57
2019-02-08T06:20:56.279Z,28.40
2019-02-08T06:23:25.876Z,32.42
2019-02-08T06:25:55.408Z,32.88
2019-02-08T06:28:24.879Z,29.27
2019-02-08T06:30:54.293Z,30.83
2019-02-08T06:33:24.645Z,26.03
2019-02-08T06:35:54.348Z,26.00
2019-02-08T06:38:23.784Z,26.20
2019-02-08T06:40:53.383Z,31.35
2019-02-08T06:43:23.048Z,33.05
2019-02-08T06:45:52.633Z,35.48
2019-02-08T06:48:22.243Z,31.87
2019-02-08T06:50:51.618Z,32.07
2019-02-08T06:53:21.018Z,25.67
2019-02-08T06:55:53.855Z,30.90
2019-02-08T06:58:39.626Z,23.60
2019-02-08T07:01:40.191Z,33.20
2019-02-08T07:04:24.962Z,26.70
2019-02-08T07:07:16.294Z,29.03
2019-02-08T07:10:03.329Z,29.57
2019-02-08T07:12:49.733Z,31.90
2019-02-08T07:15:40.940Z,37.40
2019-02-08T07:18:28.167Z,29.87
2019-02-08T07:21:22.720Z,26.80
2019-02-08T07:24:10.100Z,28.87
2019-02-08T07:26:53.169Z,31.80
2019-02-08T07:29:50.807Z,29.15
2019-02-08T07:32:30.052Z,24.63
2019-02-08T07:35:22.873Z,27.60
2019-02-08T07:38:14.832Z,27.58
2019-02-08T07:41:12.261Z,36.42
2019-02-08T07:44:01.252Z,27.13
2019-02-08T07:46:53.034Z,29.00
2019-02-08T07:49:42.143Z,29.37
2019-02-08T07:52:36.449Z,29.10
2019-02-08T07:55:25.934Z,32.10
2019-02-08T07:58:18.045Z,24.60
2019-02-08T08:01:09.684Z,26.05
2019-02-08T08:03:50.509Z,24.30
2019-02-08T08:06:31.338Z,31.73
2019-02-08T08:09:22.500Z,31.17
2019-02-08T08:12:26.252Z,23.75
2019-02-08T08:15:10.962Z,28.30
2019-02-08T08:18:06.222Z,29.33
2019-02-08T08:21:00.742Z,34.93
2019-02-08T08:23:56.871Z,27.83
2019-02-08T08:26:58.020Z,26.27
2019-02-08T08:29:38.127Z,26.10
2019-02-08T08:32:15.173Z,24.53
2019-02-08T08:35:13.889Z,34.37
2019-02-08T08:38:25.113Z,28.97
2019-02-08T08:41:26.243Z,27.97
2019-02-08T08:44:33.402Z,29.97
2019-02-08T08:47:58.732Z,30.97
2019-02-08T08:51:17.852Z,33.47
2019-02-08T08:54:40.262Z,25.13
2019-02-08T08:57:42.101Z,28.40
2019-02-08T09:00:54.322Z,28.67
2019-02-08T09:03:53.903Z,21.00
2019-02-08T09:06:41.172Z,24.77
2019-02-08T09:09:52.784Z,23.97
2019-02-08T09:13:00.991Z,35.63
2019-02-08T09:15:56.770Z,23.10
2019-02-08T09:18:54.756Z,33.43
2019-02-08T09:21:56.371Z,21.53
2019-02-08T09:25:00.976Z,24.10
2019-02-08T09:28:14.277Z,26.83
2019-02-08T09:31:36.929Z,22.63
2019-02-08T09:34:31.487Z,20.67
2019-02-08T09:37:37.802Z,23.27
2019-02-08T09:40:46.588Z,21.03
2019-02-08T09:43:52.967Z,21.23
2019-02-08T09:47:06.621Z,24.43
2019-02-08T09:50:23.572Z,29.13
2019-02-08T09:53:36.631Z,31.17
2019-02-08T09:56:51.015Z,25.67
2019-02-08T10:00:07.443Z,17.53
2019-02-08T10:03:15.537Z,22.93
2019-02-08T10:06:27.864Z,20.67
2019-02-08T10:09:33.341Z,26.83
2019-02-08T10:13:01.636Z,17.83
2019-02-08T10:16:11.881Z,19.93
2019-02-08T10:19:16.911Z,23.37
2019-02-08T10:22:39.241Z,26.10
2019-02-08T10:26:05.400Z,16.20
2019-02-08T10:29:09.229Z,18.03
2019-02-08T10:32:05.570Z,34.27
2019-02-08T10:35:20.692Z,18.33
2019-02-08T10:38:33.437Z,18.03
2019-02-08T10:41:55.452Z,19.87
2019-02-08T10:45:00.512Z,18.23
2019-02-08T10:48:41.058Z,18.90
2019-02-08T10:51:55.780Z,15.27
2019-02-08T10:54:55.127Z,20.50
2019-02-08T10:57:54.488Z,17.40
2019-02-08T11:01:18.794Z,16.40
2019-02-08T11:04:34.952Z,14.87
2019-02-08T11:07:34.486Z,15.13
2019-02-08T11:11:05.802Z,12.93
2019-02-08T11:14:19.947Z,20.33
2019-02-08T11:17:36.468Z,16.13
2019-02-08T11:20:08.459Z,16.70
2019-02-08T11:22:37.871Z,17.83
2019-02-08T11:25:07.681Z,16.13
2019-02-08T11:27:37.124Z,12.90
2019-02-08T11:30:10.615Z,13.10
2019-02-08T11:32:43.279Z,13.33
2019-02-08T11:35:11.690Z,12.83
2019-02-08T11:37:42.383Z,15.03
2019-02-08T11:40:16.494Z,15.93
2019-02-08T11:42:47.053Z,8.57
2019-02-08T11:45:18.507Z,14.80
2019-02-08T11:47:47.927Z,10.23
2019-02-08T11:50:19.305Z,12.03
2019-02-08T11:52:48.787Z,14.40
2019-02-08T11:55:18.733Z,12.67
2019-02-08T11:57:48.194Z,13.37
2019-02-08T12:00:23.587Z,18.43
2019-02-08T12:02:52.965Z,20.23
2019-02-08T12:05:22.976Z,14.47
2019-02-08T12:07:52.605Z,10.83
2019-02-08T12:10:23.345Z,9.23
2019-02-08T12:12:52.872Z,13.37
2019-02-08T12:15:22.739Z,17.80
2019-02-08T12:17:52.223Z,9.33
2019-02-08T12:20:21.759Z,8.17
2019-02-08T12:22:51.157Z,16.40
2019-02-08T12:25:20.775Z,11.77
2019-02-08T12:27:50.220Z,10.93
2019-02-08T12:30:23.742Z,14.63
2019-02-08T12:32:53.186Z,7.93
2019-02-08T12:35:23.150Z,19.37
2019-02-08T12:37:52.668Z,9.03
2019-02-08T12:40:22.131Z,10.37
2019-02-08T12:42:51.524Z,11.17
2019-02-08T12:45:21.795Z,5.70
2019-02-08T12:47:51.238Z,9.80
2019-02-08T12:50:20.942Z,13.63
2019-02-08T12:52:50.377Z,9.43
2019-02-08T12:55:19.991Z,9.80
2019-02-08T12:57:49.421Z,13.03
2019-02-08T13:00:20.425Z,19.90
2019-02-08T13:02:49.916Z,10.87
2019-02-08T13:05:20.038Z,8.47
2019-02-08T13:07:49.431Z,18.93
2019-02-08T13:10:21.170Z,14.90
2019-02-08T13:12:50.583Z,12.00
2019-02-08T13:15:20.279Z,14.90
2019-02-08T13:17:49.964Z,5.53
2019-02-08T13:20:20.068Z,6.60
2019-02-08T13:22:49.863Z,14.27
2019-02-08T13:25:19.720Z,8.97
2019-02-08T13:27:49.418Z,6.00
2019-02-08T13:30:24.402Z,14.33
2019-02-08T13:32:53.805Z,7.67
2019-02-08T13:35:23.293Z,9.30
2019-02-08T13:37:52.895Z,10.37
2019-02-08T13:40:23.101Z,21.80
2019-02-08T13:42:52.502Z,13.80
2019-02-08T13:45:22.013Z,18.40
2019-02-08T13:47:51.433Z,9.10
2019-02-08T13:50:23.228Z,9.80
2019-02-08T13:52:52.617Z,15.03
2019-02-08T13:55:23.584Z,13.33
2019-02-08T13:57:53.171Z,17.47
2019-02-08T14:00:28.613Z,19.63
2019-02-08T14:02:58.210Z,9.97
2019-02-08T14:05:27.596Z,15.60
2019-02-08T14:07:57.035Z,10.50
2019-02-08T14:10:26.632Z,50.37
2019-02-08T14:12:56.226Z,7.80
2019-02-08T14:15:25.946Z,6.97
2019-02-08T14:17:55.330Z,27.23
2019-02-08T14:20:26.107Z,20.90
2019-02-08T14:22:55.597Z,11.67
2019-02-08T14:25:25.493Z,13.50
2019-02-08T14:27:54.998Z,21.37
2019-02-08T14:30:27.157Z,7.80
2019-02-08T14:32:56.704Z,27.27
2019-02-08T14:35:26.453Z,17.03
2019-02-08T14:37:56.388Z,26.83
2019-02-08T14:40:25.977Z,17.40
2019-02-08T14:42:55.507Z,11.90
2019-02-08T14:45:24.983Z,8.00
2019-02-08T14:47:54.417Z,13.73
2019-02-08T14:50:25.707Z,13.53
2019-02-08T14:52:55.850Z,11.73
2019-02-08T14:55:25.272Z,18.23
2019-02-08T14:57:55.718Z,10.23
2019-02-08T15:00:25.205Z,4.87
2019-02-08T15:02:54.635Z,8.33
2019-02-08T15:05:24.230Z,21.37
2019-02-08T15:07:53.685Z,10.83
2019-02-08T15:10:25.754Z,7.40
2019-02-08T15:12:55.138Z,15.80
2019-02-08T15:15:24.567Z,18.87
2019-02-08T15:17:54.014Z,7.53
2019-02-08T15:20:28.646Z,8.33
2019-02-08T15:22:58.210Z,6.00
2019-02-08T15:25:27.864Z,5.80
2019-02-08T15:27:57.964Z,3.70
2019-02-08T15:30:30.197Z,9.00
2019-02-08T15:32:59.795Z,7.57
2019-02-08T15:35:30.506Z,15.00
2019-02-08T15:38:00.179Z,9.47
2019-02-08T15:40:33.269Z,26.90
2019-02-08T15:43:02.710Z,15.90
2019-02-08T15:45:32.290Z,19.53
2019-02-08T15:48:01.715Z,14.57
2019-02-08T15:50:31.172Z,5.53
2019-02-08T15:53:00.636Z,7.30
2019-02-08T15:55:32.187Z,12.80
2019-02-08T15:58:01.575Z,13.80
2019-02-08T16:00:31.962Z,12.23
2019-02-08T16:03:01.734Z,12.70
2019-02-08T16:05:32.219Z,8.83
2019-02-08T16:08:01.703Z,4.00
2019-02-08T16:10:31.075Z,15.10
2019-02-08T16:13:00.475Z,10.40
2019-02-08T16:15:29.993Z,15.33
2019-02-08T16:17:59.440Z,13.23
2019-02-08T16:20:29.440Z,13.20
2019-02-08T16:22:59.273Z,6.27
2019-02-08T16:25:29.923Z,20.27
2019-02-08T16:27:59.508Z,9.63
2019-02-08T16:30:30.492Z,15.53
2019-02-08T16:33:00.479Z,10.07
2019-02-08T16:35:30.190Z,10.10
2019-02-08T16:37:59.613Z,14.07
2019-02-08T16:40:29.466Z,5.73
2019-02-08T16:42:59.294Z,6.57
2019-02-08T16:45:33.753Z,7.27
2019-02-08T16:48:04.698Z,8.47
2019-02-08T16:50:34.230Z,14.90
2019-02-08T16:53:04.256Z,9.70
2019-02-08T16:55:33.754Z,13.87
2019-02-08T16:58:03.331Z,14.50
2019-02-08T17:00:34.607Z,10.23
2019-02-08T17:03:06.520Z,9.17
2019-02-08T17:05:36.066Z,14.13
2019-02-08T17:08:05.896Z,6.70
2019-02-08T17:10:35.496Z,13.93
2019-02-08T17:13:05.327Z,10.97
2019-02-08T17:15:35.394Z,6.53
2019-02-08T17:18:06.169Z,11.27
2019-02-08T17:20:40.688Z,4.80
2019-02-08T17:23:10.684Z,4.90
2019-02-08T17:25:40.429Z,6.40
2019-02-08T17:28:11.023Z,7.83
2019-02-08T17:30:40.530Z,4.47
2019-02-08T17:33:11.221Z,3.47
2019-02-08T17:35:40.771Z,6.07
2019-02-08T17:38:10.290Z,12.40
2019-02-08T17:40:41.649Z,17.10
2019-02-08T17:43:11.067Z,10.70
2019-02-08T17:45:40.642Z,27.43
2019-02-08T17:48:13.025Z,14.60
2019-02-08T17:50:43.035Z,10.40
2019-02-08T17:53:12.522Z,18.50
2019-02-08T17:55:41.989Z,17.13
2019-02-08T17:58:11.582Z,8.67
2019-02-08T18:00:48.242Z,8.27
2019-02-08T18:03:17.834Z,7.40
2019-02-08T18:05:47.465Z,10.53
2019-02-08T18:08:17.072Z,10.30
2019-02-08T18:10:46.518Z,8.70
2019-02-08T18:13:16.966Z,12.93
2019-02-08T18:15:46.691Z,11.30
2019-02-08T18:18:18.554Z,13.27
2019-02-08T18:20:50.093Z,22.43
2019-02-08T18:23:19.587Z,14.63
2019-02-08T18:25:48.973Z,12.93
2019-02-08T18:28:18.386Z,13.97
2019-02-08T18:30:47.933Z,15.37
2019-02-08T18:33:17.434Z,11.07
2019-02-08T18:35:46.972Z,16.87
2019-02-08T18:38:16.530Z,9.93
2019-02-08T18:40:46.105Z,13.20
2019-02-08T18:43:15.609Z,9.77
2019-02-08T18:45:45.031Z,8.83
2019-02-08T18:48:14.394Z,9.60
2019-02-08T18:50:49.206Z,11.10
2019-02-08T18:53:18.596Z,10.30
2019-02-08T18:55:47.974Z,11.93
2019-02-08T18:58:19.348Z,5.13
2019-02-08T19:00:50.164Z,10.03
2019-02-08T19:03:20.002Z,9.77
2019-02-08T19:05:49.362Z,7.80
2019-02-08T19:08:20.099Z,13.90
2019-02-08T19:10:49.475Z,11.87
2019-02-08T19:13:18.861Z,8.00
2019-02-08T19:15:48.272Z,4.37
2019-02-08T19:18:17.646Z,12.60
2019-02-08T19:20:47.020Z,7.83
2019-02-08T19:23:16.450Z,14.30
2019-02-08T19:25:45.968Z,12.00
2019-02-08T19:28:15.601Z,8.07
2019-02-08T19:30:45.424Z,8.17
2019-02-08T19:33:16.522Z,7.00
2019-02-08T19:35:45.924Z,6.10
2019-02-08T19:38:15.303Z,10.57
2019-02-08T19:40:46.856Z,5.13
2019-02-08T19:43:16.510Z,10.57
2019-02-08T19:45:45.950Z,11.77
2019-02-08T19:48:15.327Z,7.70
2019-02-08T19:50:45.948Z,5.60
2019-02-08T19:53:15.528Z,8.63
2019-02-08T19:55:44.912Z,6.20
2019-02-08T19:58:14.549Z,6.77
2019-02-08T20:00:44.357Z,16.07
2019-02-08T20:03:13.885Z,6.43
2019-02-08T20:05:43.361Z,6.93
2019-02-08T20:08:14.305Z,7.27
2019-02-08T20:10:45.691Z,11.63
2019-02-08T20:13:15.203Z,4.80
2019-02-08T20:15:45.121Z,10.17
2019-02-08T20:18:15.202Z,12.27
2019-02-08T20:20:44.920Z,4.83
2019-02-08T20:23:14.334Z,5.50
2019-02-08T20:25:43.718Z,16.37
2019-02-08T20:28:13.233Z,12.97
2019-02-08T20:30:42.808Z,12.30
2019-02-08T20:33:12.202Z,6.23
2019-02-08T20:35:41.579Z,3.53
2019-02-08T20:38:11.355Z,10.30
2019-02-08T20:40:43.407Z,6.17
2019-02-08T20:43:12.797Z,10.77
2019-02-08T20:45:42.410Z,6.57
2019-02-08T20:48:20.663Z,6.03
2019-02-08T20:50:50.412Z,6.97
2019-02-08T20:53:20.120Z,3.00
2019-02-08T20:55:50.094Z,8.93
2019-02-08T20:58:22.586Z,7.80
2019-02-08T21:00:53.940Z,3.50
2019-02-08T21:03:24.348Z,5.47
2019-02-08T21:05:54.184Z,5.43
2019-02-08T21:08:24.119Z,4.63
2019-02-08T21:10:53.778Z,19.77
2019-02-08T21:13:23.403Z,4.20
2019-02-08T21:15:52.897Z,3.43
2019-02-08T21:18:22.302Z,6.30
2019-02-08T21:20:51.915Z,6.23
2019-02-08T21:23:22.956Z,8.03
2019-02-08T21:25:52.672Z,3.43
2019-02-08T21:28:22.983Z,2.93
2019-02-08T21:30:52.368Z,8.73
2019-02-08T21:33:21.770Z,2.40
2019-02-08T21:35:51.182Z,4.43
2019-02-08T21:38:20.757Z,4.77
2019-02-08T21:40:50.288Z,5.37
2019-02-08T21:43:19.666Z,8.90
2019-02-08T21:45:49.124Z,5.87
2019-02-08T21:48:18.543Z,10.73
2019-02-08T21:50:48.183Z,4.20
2019-02-08T21:53:17.745Z,6.07
2019-02-08T21:55:47.251Z,2.33
2019-02-08T21:58:16.653Z,5.13
2019-02-08T22:00:46.202Z,2.43
2019-02-08T22:03:15.648Z,9.23
2019-02-08T22:05:48.052Z,36.03
2019-02-08T22:08:17.433Z,51.00
2019-02-08T22:10:46.816Z,29.50
2019-02-08T22:13:16.251Z,30.33
2019-02-08T22:15:46.067Z,56.53
2019-02-08T22:18:15.471Z,18.53
2019-02-08T22:20:44.880Z,70.50
2019-02-08T22:23:14.359Z,95.37
2019-02-08T22:25:43.857Z,54.77
2019-02-08T22:28:13.273Z,79.10
2019-02-08T22:30:43.100Z,172.23
2019-02-08T22:33:12.545Z,76.30
2019-02-08T22:35:42.347Z,74.60
2019-02-08T22:38:11.851Z,71.20
2019-02-08T22:40:41.375Z,54.03
2019-02-08T22:43:10.760Z,218.47
2019-02-08T22:45:41.353Z,145.37
2019-02-08T22:48:10.957Z,104.27
2019-02-08T22:50:40.470Z,111.10
2019-02-08T22:53:10.934Z,61.50
2019-02-08T22:55:40.316Z,65.97
2019-02-08T22:58:10.164Z,114.47
2019-02-08T23:01:17.908Z,108.90
2019-02-08T23:03:47.376Z,328.13
2019-02-08T23:06:16.822Z,106.03
2019-02-08T23:08:46.221Z,124.17
2019-02-08T23:11:15.653Z,211.17
2019-02-08T23:13:45.113Z,137.90
2019-02-08T23:16:14.953Z,351.63
2019-02-08T23:18:44.342Z,93.13
2019-02-08T23:21:13.706Z,62.27
2019-02-08T23:23:43.147Z,105.37
2019-02-08T23:26:12.536Z,55.07
2019-02-08T23:28:41.937Z,103.43
2019-02-08T23:31:11.486Z,241.03
2019-02-08T23:33:40.999Z,131.40
2019-02-08T23:36:10.466Z,120.40
2019-02-08T23:38:39.888Z,130.93
2019-02-08T23:41:09.527Z,93.70
2019-02-08T23:43:39.018Z,116.83
2019-02-08T23:46:08.442Z,285.20
2019-02-08T23:48:38.016Z,77.07
2019-02-08T23:51:07.479Z,233.93
2019-02-08T23:53:37.209Z,61.87
2019-02-08T23:56:06.802Z,257.97
2019-02-08T23:58:36.173Z,230.53
